sensor_id;sensor_type;location;lat;lon;timestamp;temperature;humidity
43949;DHT22;29429;51.074;13.764;2023-11-21T00:00:16;8.70;99.90
43949;DHT22;29429;51.074;13.764;2023-11-21T00:02:44;8.70;99.90
43949;DHT22;29429;51.074;13.764;2023-11-21T00:05:13;8.80;99.90
43949;DHT22;29429;51.074;13.764;2023-11-21T00:07:41;8.90;99.90
43949;DHT22;29429;51.074;13.764;2023-11-21T00:10:09;8.80;99.90
43949;DHT22;29429;51.074;13.764;2023-11-21T00:12:37;8.80;99.90
43949;DHT22;29429;51.074;13.764;2023-11-21T00:15:05;8.80;99.90
43949;DHT22;29429;51.074;13.764;2023-11-21T00:17:32;8.80;99.90
43949;DHT22;29429;51.074;13.764;2023-11-21T00:19:59;8.70;99.90
43949;DHT22;29429;51.074;13.764;2023-11-21T00:22:26;8.80;99.90
43949;DHT22;29429;51.074;13.764;2023-11-21T00:24:53;8.80;99.90
43949;DHT22;29429;51.074;13.764;2023-11-21T00:27:20;8.80;99.90
43949;DHT22;29429;51.074;13.764;2023-11-21T00:29:47;8.80;99.90
43949;DHT22;29429;51.074;13.764;2023-11-21T00:32:14;8.80;99.90
43949;DHT22;29429;51.074;13.764;2023-11-21T00:34:41;8.90;99.90
43949;DHT22;29429;51.074;13.764;2023-11-21T00:37:09;8.90;99.90
43949;DHT22;29429;51.074;13.764;2023-11-21T00:39:36;8.90;99.90
43949;DHT22;29429;51.074;13.764;2023-11-21T00:42:03;8.90;99.90
43949;DHT22;29429;51.074;13.764;2023-11-21T00:44:31;8.90;99.90
43949;DHT22;29429;51.074;13.764;2023-11-21T00:46:58;8.90;99.90
43949;DHT22;29429;51.074;13.764;2023-11-21T00:49:25;9.00;99.90
43949;DHT22;29429;51.074;13.764;2023-11-21T00:51:52;8.90;99.90
43949;DHT22;29429;51.074;13.764;2023-11-21T00:54:19;8.90;99.90
43949;DHT22;29429;51.074;13.764;2023-11-21T00:56:46;8.90;99.90
43949;DHT22;29429;51.074;13.764;2023-11-21T00:59:16;9.00;99.90
43949;DHT22;29429;51.074;13.764;2023-11-21T01:01:42;8.90;99.90
43949;DHT22;29429;51.074;13.764;2023-11-21T01:04:09;8.90;99.90
43949;DHT22;29429;51.074;13.764;2023-11-21T01:06:37;8.90;99.90
43949;DHT22;29429;51.074;13.764;2023-11-21T01:09:05;8.90;99.90
43949;DHT22;29429;51.074;13.764;2023-11-21T01:11:36;8.80;99.90
43949;DHT22;29429;51.074;13.764;2023-11-21T01:14:06;8.90;99.90
43949;DHT22;29429;51.074;13.764;2023-11-21T01:16:35;8.90;99.90
43949;DHT22;29429;51.074;13.764;2023-11-21T01:19:03;8.90;99.90
43949;DHT22;29429;51.074;13.764;2023-11-21T01:21:31;8.90;99.90
43949;DHT22;29429;51.074;13.764;2023-11-21T01:23:58;8.90;99.90
43949;DHT22;29429;51.074;13.764;2023-11-21T01:26:25;8.90;99.90
43949;DHT22;29429;51.074;13.764;2023-11-21T01:28:52;8.90;99.90
43949;DHT22;29429;51.074;13.764;2023-11-21T01:31:19;8.80;99.90
43949;DHT22;29429;51.074;13.764;2023-11-21T01:33:47;8.80;99.90
43949;DHT22;29429;51.074;13.764;2023-11-21T01:36:15;8.90;99.90
43949;DHT22;29429;51.074;13.764;2023-11-21T01:38:44;8.90;99.90
43949;DHT22;29429;51.074;13.764;2023-11-21T01:41:10;8.90;99.90
43949;DHT22;29429;51.074;13.764;2023-11-21T01:43:40;8.80;99.90
43949;DHT22;29429;51.074;13.764;2023-11-21T01:46:08;8.90;99.90
43949;DHT22;29429;51.074;13.764;2023-11-21T01:48:36;8.90;99.90
43949;DHT22;29429;51.074;13.764;2023-11-21T01:51:05;8.90;99.90
43949;DHT22;29429;51.074;13.764;2023-11-21T01:53:32;8.90;99.90
43949;DHT22;29429;51.074;13.764;2023-11-21T01:56:00;8.90;99.90
43949;DHT22;29429;51.074;13.764;2023-11-21T01:58:27;8.90;99.90
43949;DHT22;29429;51.074;13.764;2023-11-21T02:00:54;8.90;99.90
43949;DHT22;29429;51.074;13.764;2023-11-21T02:03:21;8.90;99.90
43949;DHT22;29429;51.074;13.764;2023-11-21T02:05:49;8.90;99.90
43949;DHT22;29429;51.074;13.764;2023-11-21T02:08:16;9.00;99.90
43949;DHT22;29429;51.074;13.764;2023-11-21T02:10:43;9.10;99.90
43949;DHT22;29429;51.074;13.764;2023-11-21T02:13:10;8.90;99.90
43949;DHT22;29429;51.074;13.764;2023-11-21T02:15:38;8.90;99.90
43949;DHT22;29429;51.074;13.764;2023-11-21T02:18:05;8.90;99.90
43949;DHT22;29429;51.074;13.764;2023-11-21T02:20:33;8.90;99.90
43949;DHT22;29429;51.074;13.764;2023-11-21T02:23:03;9.00;99.90
43949;DHT22;29429;51.074;13.764;2023-11-21T02:25:31;9.00;99.90
43949;DHT22;29429;51.074;13.764;2023-11-21T02:28:01;9.00;99.90
43949;DHT22;29429;51.074;13.764;2023-11-21T02:30:30;9.10;99.90
43949;DHT22;29429;51.074;13.764;2023-11-21T02:33:01;9.00;99.90
43949;DHT22;29429;51.074;13.764;2023-11-21T02:35:30;9.00;99.90
43949;DHT22;29429;51.074;13.764;2023-11-21T02:37:58;9.00;99.90
43949;DHT22;29429;51.074;13.764;2023-11-21T02:40:26;9.00;99.90
43949;DHT22;29429;51.074;13.764;2023-11-21T02:42:54;9.00;99.90
43949;DHT22;29429;51.074;13.764;2023-11-21T02:45:21;8.90;99.90
43949;DHT22;29429;51.074;13.764;2023-11-21T02:47:50;8.90;99.90
43949;DHT22;29429;51.074;13.764;2023-11-21T02:50:17;8.90;99.90
43949;DHT22;29429;51.074;13.764;2023-11-21T02:52:46;8.90;99.90
43949;DHT22;29429;51.074;13.764;2023-11-21T02:55:13;8.80;99.90
43949;DHT22;29429;51.074;13.764;2023-11-21T02:57:41;8.70;99.90
43949;DHT22;29429;51.074;13.764;2023-11-21T03:00:08;8.70;99.90
43949;DHT22;29429;51.074;13.764;2023-11-21T03:02:40;8.60;99.90
43949;DHT22;29429;51.074;13.764;2023-11-21T03:05:08;8.60;99.90
43949;DHT22;29429;51.074;13.764;2023-11-21T03:07:39;8.50;99.90
43949;DHT22;29429;51.074;13.764;2023-11-21T03:10:08;8.50;99.90
43949;DHT22;29429;51.074;13.764;2023-11-21T03:12:40;8.40;99.90
43949;DHT22;29429;51.074;13.764;2023-11-21T03:15:08;8.40;99.90
43949;DHT22;29429;51.074;13.764;2023-11-21T03:17:36;8.40;99.90
43949;DHT22;29429;51.074;13.764;2023-11-21T03:20:04;8.30;99.90
43949;DHT22;29429;51.074;13.764;2023-11-21T03:22:32;8.30;99.90
43949;DHT22;29429;51.074;13.764;2023-11-21T03:25:00;8.30;99.90
43949;DHT22;29429;51.074;13.764;2023-11-21T03:27:27;8.20;99.90
43949;DHT22;29429;51.074;13.764;2023-11-21T03:29:54;8.20;99.90
43949;DHT22;29429;51.074;13.764;2023-11-21T03:32:22;8.20;99.90
43949;DHT22;29429;51.074;13.764;2023-11-21T03:34:57;8.10;99.90
43949;DHT22;29429;51.074;13.764;2023-11-21T03:37:26;8.10;99.90
43949;DHT22;29429;51.074;13.764;2023-11-21T03:39:58;8.10;99.90
43949;DHT22;29429;51.074;13.764;2023-11-21T03:42:25;8.10;99.90
43949;DHT22;29429;51.074;13.764;2023-11-21T03:44:53;8.00;99.90
43949;DHT22;29429;51.074;13.764;2023-11-21T03:47:20;8.00;99.90
43949;DHT22;29429;51.074;13.764;2023-11-21T03:49:47;8.00;99.90
43949;DHT22;29429;51.074;13.764;2023-11-21T03:52:15;8.00;99.90
43949;DHT22;29429;51.074;13.764;2023-11-21T03:54:43;8.10;99.90
43949;DHT22;29429;51.074;13.764;2023-11-21T03:57:11;8.00;99.90
43949;DHT22;29429;51.074;13.764;2023-11-21T03:59:41;8.00;99.90
43949;DHT22;29429;51.074;13.764;2023-11-21T04:02:09;8.10;99.90
43949;DHT22;29429;51.074;13.764;2023-11-21T04:04:36;8.00;99.90
43949;DHT22;29429;51.074;13.764;2023-11-21T04:07:04;8.00;99.90
43949;DHT22;29429;51.074;13.764;2023-11-21T04:09:31;8.00;99.90
43949;DHT22;29429;51.074;13.764;2023-11-21T04:11:58;8.10;99.90
43949;DHT22;29429;51.074;13.764;2023-11-21T04:14:25;8.10;99.90
43949;DHT22;29429;51.074;13.764;2023-11-21T04:16:52;8.10;99.90
43949;DHT22;29429;51.074;13.764;2023-11-21T04:19:20;8.10;99.90
43949;DHT22;29429;51.074;13.764;2023-11-21T04:21:47;8.10;99.90
43949;DHT22;29429;51.074;13.764;2023-11-21T04:24:15;8.20;99.90
43949;DHT22;29429;51.074;13.764;2023-11-21T04:26:43;8.10;99.90
43949;DHT22;29429;51.074;13.764;2023-11-21T04:29:10;8.10;99.90
43949;DHT22;29429;51.074;13.764;2023-11-21T04:31:37;8.10;99.90
43949;DHT22;29429;51.074;13.764;2023-11-21T04:34:05;8.20;99.90
43949;DHT22;29429;51.074;13.764;2023-11-21T04:36:31;8.10;99.90
43949;DHT22;29429;51.074;13.764;2023-11-21T04:38:58;8.10;99.90
43949;DHT22;29429;51.074;13.764;2023-11-21T04:41:25;8.10;99.90
43949;DHT22;29429;51.074;13.764;2023-11-21T04:43:52;8.10;99.90
43949;DHT22;29429;51.074;13.764;2023-11-21T04:46:19;8.20;99.90
43949;DHT22;29429;51.074;13.764;2023-11-21T04:48:46;8.10;99.90
43949;DHT22;29429;51.074;13.764;2023-11-21T04:51:13;8.10;99.90
43949;DHT22;29429;51.074;13.764;2023-11-21T04:53:40;8.10;99.90
43949;DHT22;29429;51.074;13.764;2023-11-21T04:56:07;8.20;99.90
43949;DHT22;29429;51.074;13.764;2023-11-21T04:58:34;8.20;99.90
43949;DHT22;29429;51.074;13.764;2023-11-21T05:01:02;8.20;99.90
43949;DHT22;29429;51.074;13.764;2023-11-21T05:03:34;8.30;99.90
43949;DHT22;29429;51.074;13.764;2023-11-21T05:06:02;8.30;99.90
43949;DHT22;29429;51.074;13.764;2023-11-21T05:08:30;8.30;99.90
43949;DHT22;29429;51.074;13.764;2023-11-21T05:10:57;8.50;99.90
43949;DHT22;29429;51.074;13.764;2023-11-21T05:13:24;8.40;99.90
43949;DHT22;29429;51.074;13.764;2023-11-21T05:15:55;8.40;99.90
43949;DHT22;29429;51.074;13.764;2023-11-21T05:18:23;8.40;99.90
43949;DHT22;29429;51.074;13.764;2023-11-21T05:20:53;8.40;99.90
43949;DHT22;29429;51.074;13.764;2023-11-21T05:23:20;8.50;99.90
43949;DHT22;29429;51.074;13.764;2023-11-21T05:25:47;8.50;99.90
43949;DHT22;29429;51.074;13.764;2023-11-21T05:28:14;8.50;99.90
43949;DHT22;29429;51.074;13.764;2023-11-21T05:30:41;8.50;99.90
43949;DHT22;29429;51.074;13.764;2023-11-21T05:33:08;8.50;99.90
43949;DHT22;29429;51.074;13.764;2023-11-21T05:35:35;8.50;99.90
43949;DHT22;29429;51.074;13.764;2023-11-21T05:38:02;8.50;99.90
43949;DHT22;29429;51.074;13.764;2023-11-21T05:40:29;8.50;99.90
43949;DHT22;29429;51.074;13.764;2023-11-21T05:42:56;8.50;99.90
43949;DHT22;29429;51.074;13.764;2023-11-21T05:45:23;8.60;99.90
43949;DHT22;29429;51.074;13.764;2023-11-21T05:47:50;8.50;99.90
43949;DHT22;29429;51.074;13.764;2023-11-21T05:50:17;8.60;99.90
43949;DHT22;29429;51.074;13.764;2023-11-21T05:52:46;8.50;99.90
43949;DHT22;29429;51.074;13.764;2023-11-21T05:55:14;8.50;99.90
43949;DHT22;29429;51.074;13.764;2023-11-21T05:57:42;8.50;99.90
43949;DHT22;29429;51.074;13.764;2023-11-21T06:00:12;8.50;99.90
43949;DHT22;29429;51.074;13.764;2023-11-21T06:02:49;8.50;99.90
43949;DHT22;29429;51.074;13.764;2023-11-21T06:05:22;8.50;99.90
43949;DHT22;29429;51.074;13.764;2023-11-21T06:07:52;8.50;99.90
43949;DHT22;29429;51.074;13.764;2023-11-21T06:10:21;8.40;99.90
43949;DHT22;29429;51.074;13.764;2023-11-21T06:12:51;8.40;99.90
43949;DHT22;29429;51.074;13.764;2023-11-21T06:15:18;8.40;99.90
43949;DHT22;29429;51.074;13.764;2023-11-21T06:17:47;8.40;99.90
43949;DHT22;29429;51.074;13.764;2023-11-21T06:20:19;8.40;99.90
43949;DHT22;29429;51.074;13.764;2023-11-21T06:22:48;8.40;99.90
43949;DHT22;29429;51.074;13.764;2023-11-21T06:25:16;8.40;99.90
43949;DHT22;29429;51.074;13.764;2023-11-21T06:27:46;8.40;99.90
43949;DHT22;29429;51.074;13.764;2023-11-21T06:30:16;8.50;99.90
43949;DHT22;29429;51.074;13.764;2023-11-21T06:32:46;8.50;99.90
43949;DHT22;29429;51.074;13.764;2023-11-21T06:35:15;8.50;99.90
43949;DHT22;29429;51.074;13.764;2023-11-21T06:37:44;8.40;99.90
43949;DHT22;29429;51.074;13.764;2023-11-21T06:40:17;8.40;99.90
43949;DHT22;29429;51.074;13.764;2023-11-21T06:42:48;8.50;99.90
43949;DHT22;29429;51.074;13.764;2023-11-21T06:45:17;8.50;99.90
43949;DHT22;29429;51.074;13.764;2023-11-21T06:47:47;8.50;99.90
43949;DHT22;29429;51.074;13.764;2023-11-21T06:50:15;8.50;99.90
43949;DHT22;29429;51.074;13.764;2023-11-21T06:52:42;8.50;99.90
43949;DHT22;29429;51.074;13.764;2023-11-21T06:55:10;8.60;99.90
43949;DHT22;29429;51.074;13.764;2023-11-21T06:57:37;8.60;99.90
43949;DHT22;29429;51.074;13.764;2023-11-21T07:00:05;8.60;99.90
43949;DHT22;29429;51.074;13.764;2023-11-21T07:02:35;8.60;99.90
43949;DHT22;29429;51.074;13.764;2023-11-21T07:05:02;8.60;99.90
43949;DHT22;29429;51.074;13.764;2023-11-21T07:07:30;8.60;99.90
43949;DHT22;29429;51.074;13.764;2023-11-21T07:09:57;8.60;99.90
43949;DHT22;29429;51.074;13.764;2023-11-21T07:12:24;8.60;99.90
43949;DHT22;29429;51.074;13.764;2023-11-21T07:14:52;8.70;99.90
43949;DHT22;29429;51.074;13.764;2023-11-21T07:17:20;8.70;99.90
43949;DHT22;29429;51.074;13.764;2023-11-21T07:19:48;8.60;99.90
43949;DHT22;29429;51.074;13.764;2023-11-21T07:22:16;8.70;99.90
43949;DHT22;29429;51.074;13.764;2023-11-21T07:24:49;8.70;99.90
43949;DHT22;29429;51.074;13.764;2023-11-21T07:27:19;8.70;99.90
43949;DHT22;29429;51.074;13.764;2023-11-21T07:29:46;8.70;99.90
43949;DHT22;29429;51.074;13.764;2023-11-21T07:32:15;8.70;99.90
43949;DHT22;29429;51.074;13.764;2023-11-21T07:34:42;8.70;99.90
43949;DHT22;29429;51.074;13.764;2023-11-21T07:37:09;8.80;99.90
43949;DHT22;29429;51.074;13.764;2023-11-21T07:39:36;8.80;99.90
43949;DHT22;29429;51.074;13.764;2023-11-21T07:42:03;8.90;99.90
43949;DHT22;29429;51.074;13.764;2023-11-21T07:44:31;8.90;99.90
43949;DHT22;29429;51.074;13.764;2023-11-21T07:46:58;9.00;99.90
43949;DHT22;29429;51.074;13.764;2023-11-21T07:49:25;9.10;99.90
43949;DHT22;29429;51.074;13.764;2023-11-21T07:51:53;9.20;99.90
43949;DHT22;29429;51.074;13.764;2023-11-21T07:54:20;9.20;99.90
43949;DHT22;29429;51.074;13.764;2023-11-21T07:56:48;9.20;99.90
43949;DHT22;29429;51.074;13.764;2023-11-21T07:59:15;9.30;99.90
43949;DHT22;29429;51.074;13.764;2023-11-21T08:01:41;9.20;99.90
43949;DHT22;29429;51.074;13.764;2023-11-21T08:04:10;9.20;99.90
43949;DHT22;29429;51.074;13.764;2023-11-21T08:06:37;9.20;99.90
43949;DHT22;29429;51.074;13.764;2023-11-21T08:09:04;9.10;99.90
43949;DHT22;29429;51.074;13.764;2023-11-21T08:11:31;9.20;99.90
43949;DHT22;29429;51.074;13.764;2023-11-21T08:13:59;9.20;99.90
43949;DHT22;29429;51.074;13.764;2023-11-21T08:16:26;9.20;99.90
43949;DHT22;29429;51.074;13.764;2023-11-21T08:18:54;9.10;99.90
43949;DHT22;29429;51.074;13.764;2023-11-21T08:21:21;9.10;99.90
43949;DHT22;29429;51.074;13.764;2023-11-21T08:23:51;9.10;99.90
43949;DHT22;29429;51.074;13.764;2023-11-21T08:26:21;9.00;99.90
43949;DHT22;29429;51.074;13.764;2023-11-21T08:28:49;9.20;99.90
43949;DHT22;29429;51.074;13.764;2023-11-21T08:31:16;9.00;99.90
43949;DHT22;29429;51.074;13.764;2023-11-21T08:33:43;9.00;99.90
43949;DHT22;29429;51.074;13.764;2023-11-21T08:36:10;8.90;99.90
43949;DHT22;29429;51.074;13.764;2023-11-21T08:38:38;8.90;99.90
43949;DHT22;29429;51.074;13.764;2023-11-21T08:41:06;8.90;99.90
43949;DHT22;29429;51.074;13.764;2023-11-21T08:43:35;8.90;99.90
43949;DHT22;29429;51.074;13.764;2023-11-21T08:46:06;8.80;99.90
43949;DHT22;29429;51.074;13.764;2023-11-21T08:48:36;8.80;99.90
43949;DHT22;29429;51.074;13.764;2023-11-21T08:51:04;8.80;99.90
43949;DHT22;29429;51.074;13.764;2023-11-21T08:53:32;8.70;99.90
43949;DHT22;29429;51.074;13.764;2023-11-21T08:55:59;8.70;99.90
43949;DHT22;29429;51.074;13.764;2023-11-21T08:58:27;8.70;99.90
43949;DHT22;29429;51.074;13.764;2023-11-21T09:00:54;8.60;99.90
43949;DHT22;29429;51.074;13.764;2023-11-21T09:03:21;8.70;99.90
43949;DHT22;29429;51.074;13.764;2023-11-21T09:05:48;8.70;99.90
43949;DHT22;29429;51.074;13.764;2023-11-21T09:08:15;8.70;99.90
43949;DHT22;29429;51.074;13.764;2023-11-21T09:10:42;8.60;99.90
43949;DHT22;29429;51.074;13.764;2023-11-21T09:13:10;8.70;99.90
43949;DHT22;29429;51.074;13.764;2023-11-21T09:15:37;8.70;99.90
43949;DHT22;29429;51.074;13.764;2023-11-21T09:18:04;8.70;99.90
43949;DHT22;29429;51.074;13.764;2023-11-21T09:20:31;8.60;99.90
43949;DHT22;29429;51.074;13.764;2023-11-21T09:22:58;8.70;99.90
43949;DHT22;29429;51.074;13.764;2023-11-21T09:25:25;8.60;99.90
43949;DHT22;29429;51.074;13.764;2023-11-21T09:27:52;8.60;99.90
43949;DHT22;29429;51.074;13.764;2023-11-21T09:30:19;8.60;99.90
43949;DHT22;29429;51.074;13.764;2023-11-21T09:32:46;8.60;99.90
43949;DHT22;29429;51.074;13.764;2023-11-21T09:35:14;8.60;99.90
43949;DHT22;29429;51.074;13.764;2023-11-21T09:37:41;8.50;99.90
43949;DHT22;29429;51.074;13.764;2023-11-21T09:40:12;8.60;99.90
43949;DHT22;29429;51.074;13.764;2023-11-21T09:45:32;8.60;99.90
43949;DHT22;29429;51.074;13.764;2023-11-21T09:48:05;8.50;99.90
43949;DHT22;29429;51.074;13.764;2023-11-21T09:50:35;8.40;99.90
43949;DHT22;29429;51.074;13.764;2023-11-21T09:53:17;8.30;99.90
43949;DHT22;29429;51.074;13.764;2023-11-21T09:55:50;8.30;99.90
43949;DHT22;29429;51.074;13.764;2023-11-21T09:58:19;8.30;99.90
43949;DHT22;29429;51.074;13.764;2023-11-21T10:00:53;8.10;99.90
43949;DHT22;29429;51.074;13.764;2023-11-21T10:03:23;8.00;99.90
43949;DHT22;29429;51.074;13.764;2023-11-21T10:05:51;7.90;99.90
43949;DHT22;29429;51.074;13.764;2023-11-21T10:08:22;7.80;99.90
43949;DHT22;29429;51.074;13.764;2023-11-21T10:10:53;7.70;99.90
43949;DHT22;29429;51.074;13.764;2023-11-21T10:13:21;7.60;99.90
43949;DHT22;29429;51.074;13.764;2023-11-21T10:15:51;7.50;99.90
43949;DHT22;29429;51.074;13.764;2023-11-21T10:18:20;7.40;99.90
43949;DHT22;29429;51.074;13.764;2023-11-21T10:20:50;7.30;99.90
43949;DHT22;29429;51.074;13.764;2023-11-21T10:23:21;7.20;99.90
43949;DHT22;29429;51.074;13.764;2023-11-21T10:25:51;7.20;99.90
43949;DHT22;29429;51.074;13.764;2023-11-21T10:28:19;7.20;99.90
43949;DHT22;29429;51.074;13.764;2023-11-21T10:30:47;7.10;99.90
43949;DHT22;29429;51.074;13.764;2023-11-21T10:33:14;7.10;99.90
43949;DHT22;29429;51.074;13.764;2023-11-21T10:38:08;7.30;99.90
43949;DHT22;29429;51.074;13.764;2023-11-21T10:40:43;7.20;99.90
43949;DHT22;29429;51.074;13.764;2023-11-21T10:43:11;7.20;99.90
43949;DHT22;29429;51.074;13.764;2023-11-21T10:45:40;7.30;99.90
43949;DHT22;29429;51.074;13.764;2023-11-21T10:48:15;7.20;99.90
43949;DHT22;29429;51.074;13.764;2023-11-21T10:50:45;7.20;99.90
43949;DHT22;29429;51.074;13.764;2023-11-21T10:53:13;7.10;99.90
43949;DHT22;29429;51.074;13.764;2023-11-21T10:55:41;7.10;99.90
43949;DHT22;29429;51.074;13.764;2023-11-21T10:58:13;7.20;99.90
43949;DHT22;29429;51.074;13.764;2023-11-21T11:00:41;7.00;99.90
43949;DHT22;29429;51.074;13.764;2023-11-21T11:03:12;7.00;99.90
43949;DHT22;29429;51.074;13.764;2023-11-21T11:05:47;7.00;99.90
43949;DHT22;29429;51.074;13.764;2023-11-21T11:08:21;7.00;99.90
43949;DHT22;29429;51.074;13.764;2023-11-21T11:10:54;7.00;99.90
43949;DHT22;29429;51.074;13.764;2023-11-21T11:13:22;7.00;99.90
43949;DHT22;29429;51.074;13.764;2023-11-21T11:15:51;7.00;99.90
43949;DHT22;29429;51.074;13.764;2023-11-21T11:18:30;7.10;99.90
43949;DHT22;29429;51.074;13.764;2023-11-21T11:21:32;7.00;99.90
43949;DHT22;29429;51.074;13.764;2023-11-21T11:33:17;6.80;99.90
43949;DHT22;29429;51.074;13.764;2023-11-21T11:36:28;6.70;99.90
43949;DHT22;29429;51.074;13.764;2023-11-21T11:39:01;6.80;99.90
43949;DHT22;29429;51.074;13.764;2023-11-21T11:41:31;6.80;99.90
43949;DHT22;29429;51.074;13.764;2023-11-21T11:44:01;6.80;99.90
43949;DHT22;29429;51.074;13.764;2023-11-21T11:49:27;6.80;99.90
43949;DHT22;29429;51.074;13.764;2023-11-21T11:55:02;6.70;99.90
43949;DHT22;29429;51.074;13.764;2023-11-21T11:57:31;6.70;99.90
43949;DHT22;29429;51.074;13.764;2023-11-21T12:02:45;6.60;99.90
43949;DHT22;29429;51.074;13.764;2023-11-21T12:05:17;6.60;99.90
43949;DHT22;29429;51.074;13.764;2023-11-21T12:07:59;6.40;99.90
43949;DHT22;29429;51.074;13.764;2023-11-21T12:10:35;6.50;99.90
43949;DHT22;29429;51.074;13.764;2023-11-21T12:13:06;6.50;99.90
43949;DHT22;29429;51.074;13.764;2023-11-21T12:15:35;6.50;99.90
43949;DHT22;29429;51.074;13.764;2023-11-21T12:18:04;6.40;99.90
43949;DHT22;29429;51.074;13.764;2023-11-21T12:20:32;6.40;99.90
43949;DHT22;29429;51.074;13.764;2023-11-21T12:23:05;6.30;99.90
43949;DHT22;29429;51.074;13.764;2023-11-21T12:25:32;6.30;99.90
43949;DHT22;29429;51.074;13.764;2023-11-21T12:28:01;6.40;99.90
43949;DHT22;29429;51.074;13.764;2023-11-21T12:30:31;6.30;99.90
43949;DHT22;29429;51.074;13.764;2023-11-21T12:33:02;6.30;99.90
43949;DHT22;29429;51.074;13.764;2023-11-21T12:35:32;6.30;99.90
43949;DHT22;29429;51.074;13.764;2023-11-21T12:38:02;6.30;99.90
43949;DHT22;29429;51.074;13.764;2023-11-21T12:40:31;6.30;99.90
43949;DHT22;29429;51.074;13.764;2023-11-21T12:42:59;6.40;99.90
43949;DHT22;29429;51.074;13.764;2023-11-21T12:45:29;6.30;99.90
43949;DHT22;29429;51.074;13.764;2023-11-21T12:48:00;6.30;99.90
43949;DHT22;29429;51.074;13.764;2023-11-21T12:50:31;6.20;99.90
43949;DHT22;29429;51.074;13.764;2023-11-21T12:53:00;6.10;99.90
43949;DHT22;29429;51.074;13.764;2023-11-21T12:55:31;6.10;99.90
43949;DHT22;29429;51.074;13.764;2023-11-21T12:58:01;6.10;99.90
43949;DHT22;29429;51.074;13.764;2023-11-21T13:00:42;6.00;99.90
43949;DHT22;29429;51.074;13.764;2023-11-21T13:03:13;6.20;99.90
43949;DHT22;29429;51.074;13.764;2023-11-21T13:05:49;6.00;99.90
43949;DHT22;29429;51.074;13.764;2023-11-21T13:08:23;6.10;99.90
43949;DHT22;29429;51.074;13.764;2023-11-21T13:10:56;6.00;99.90
43949;DHT22;29429;51.074;13.764;2023-11-21T13:13:25;6.00;99.90
43949;DHT22;29429;51.074;13.764;2023-11-21T13:15:58;6.00;99.90
43949;DHT22;29429;51.074;13.764;2023-11-21T13:18:31;5.90;99.90
43949;DHT22;29429;51.074;13.764;2023-11-21T13:21:03;5.80;99.90
43949;DHT22;29429;51.074;13.764;2023-11-21T13:23:42;5.80;99.90
43949;DHT22;29429;51.074;13.764;2023-11-21T13:26:09;5.80;99.90
43949;DHT22;29429;51.074;13.764;2023-11-21T13:28:37;5.60;99.90
43949;DHT22;29429;51.074;13.764;2023-11-21T13:31:05;5.70;99.90
43949;DHT22;29429;51.074;13.764;2023-11-21T13:33:38;5.70;99.90
43949;DHT22;29429;51.074;13.764;2023-11-21T13:36:07;5.60;99.90
43949;DHT22;29429;51.074;13.764;2023-11-21T13:38:37;5.60;99.90
43949;DHT22;29429;51.074;13.764;2023-11-21T13:41:09;5.60;99.90
43949;DHT22;29429;51.074;13.764;2023-11-21T13:43:37;5.60;99.90
43949;DHT22;29429;51.074;13.764;2023-11-21T13:46:04;5.60;99.90
43949;DHT22;29429;51.074;13.764;2023-11-21T13:48:44;5.50;99.90
43949;DHT22;29429;51.074;13.764;2023-11-21T13:51:18;5.50;99.90
43949;DHT22;29429;51.074;13.764;2023-11-21T13:53:46;5.40;99.90
43949;DHT22;29429;51.074;13.764;2023-11-21T13:56:19;5.50;99.90
43949;DHT22;29429;51.074;13.764;2023-11-21T13:58:51;5.40;99.90
43949;DHT22;29429;51.074;13.764;2023-11-21T14:01:24;5.40;99.90
43949;DHT22;29429;51.074;13.764;2023-11-21T14:04:01;5.40;99.90
43949;DHT22;29429;51.074;13.764;2023-11-21T14:06:47;5.40;99.90
43949;DHT22;29429;51.074;13.764;2023-11-21T14:09:18;5.30;99.90
43949;DHT22;29429;51.074;13.764;2023-11-21T14:11:55;5.30;99.90
43949;DHT22;29429;51.074;13.764;2023-11-21T14:14:25;5.30;99.90
43949;DHT22;29429;51.074;13.764;2023-11-21T14:16:56;5.30;99.90
43949;DHT22;29429;51.074;13.764;2023-11-21T14:19:25;5.20;99.90
43949;DHT22;29429;51.074;13.764;2023-11-21T14:21:58;5.20;99.90
43949;DHT22;29429;51.074;13.764;2023-11-21T14:24:25;5.10;99.90
43949;DHT22;29429;51.074;13.764;2023-11-21T14:26:52;5.10;99.90
43949;DHT22;29429;51.074;13.764;2023-11-21T14:29:20;5.10;99.90
43949;DHT22;29429;51.074;13.764;2023-11-21T14:31:47;5.10;99.90
43949;DHT22;29429;51.074;13.764;2023-11-21T14:34:15;5.00;99.90
43949;DHT22;29429;51.074;13.764;2023-11-21T14:36:47;5.00;99.90
43949;DHT22;29429;51.074;13.764;2023-11-21T14:39:16;5.00;99.90
43949;DHT22;29429;51.074;13.764;2023-11-21T14:41:56;4.90;99.90
43949;DHT22;29429;51.074;13.764;2023-11-21T14:44:24;4.80;99.90
43949;DHT22;29429;51.074;13.764;2023-11-21T14:46:54;4.70;99.90
43949;DHT22;29429;51.074;13.764;2023-11-21T14:49:25;4.70;99.90
43949;DHT22;29429;51.074;13.764;2023-11-21T14:51:55;4.70;99.90
43949;DHT22;29429;51.074;13.764;2023-11-21T14:54:22;4.70;99.90
43949;DHT22;29429;51.074;13.764;2023-11-21T14:57:10;4.60;99.90
43949;DHT22;29429;51.074;13.764;2023-11-21T14:59:44;4.60;99.90
43949;DHT22;29429;51.074;13.764;2023-11-21T15:02:15;4.50;99.90
43949;DHT22;29429;51.074;13.764;2023-11-21T15:04:44;4.50;99.90
43949;DHT22;29429;51.074;13.764;2023-11-21T15:07:11;4.40;99.90
43949;DHT22;29429;51.074;13.764;2023-11-21T15:09:39;4.40;99.90
43949;DHT22;29429;51.074;13.764;2023-11-21T15:12:09;4.30;99.90
43949;DHT22;29429;51.074;13.764;2023-11-21T15:14:50;4.30;99.90
43949;DHT22;29429;51.074;13.764;2023-11-21T15:17:23;4.30;99.90
43949;DHT22;29429;51.074;13.764;2023-11-21T15:19:54;4.20;99.90
43949;DHT22;29429;51.074;13.764;2023-11-21T15:22:21;4.20;99.90
43949;DHT22;29429;51.074;13.764;2023-11-21T15:24:49;4.30;99.90
43949;DHT22;29429;51.074;13.764;2023-11-21T15:27:17;4.10;99.90
43949;DHT22;29429;51.074;13.764;2023-11-21T15:29:44;4.10;99.90
43949;DHT22;29429;51.074;13.764;2023-11-21T15:32:12;4.10;99.90
43949;DHT22;29429;51.074;13.764;2023-11-21T15:34:39;4.10;99.90
43949;DHT22;29429;51.074;13.764;2023-11-21T15:37:07;4.10;99.90
43949;DHT22;29429;51.074;13.764;2023-11-21T15:39:38;4.10;99.90
43949;DHT22;29429;51.074;13.764;2023-11-21T15:42:06;4.20;99.90
43949;DHT22;29429;51.074;13.764;2023-11-21T15:44:34;4.20;99.90
43949;DHT22;29429;51.074;13.764;2023-11-21T15:47:01;4.30;99.90
43949;DHT22;29429;51.074;13.764;2023-11-21T15:49:31;4.30;99.90
43949;DHT22;29429;51.074;13.764;2023-11-21T15:52:05;4.30;99.90
43949;DHT22;29429;51.074;13.764;2023-11-21T15:54:34;4.20;99.90
43949;DHT22;29429;51.074;13.764;2023-11-21T15:57:04;4.40;99.90
43949;DHT22;29429;51.074;13.764;2023-11-21T15:59:32;4.40;99.90
43949;DHT22;29429;51.074;13.764;2023-11-21T16:02:01;4.40;99.90
43949;DHT22;29429;51.074;13.764;2023-11-21T16:04:32;4.50;99.90